createdAt,value
2024-03-02T00:00:52.764Z,69.78
2024-03-02T00:03:23.938Z,63.60
2024-03-02T00:05:55.201Z,60.40
2024-03-02T00:08:29.070Z,57.67
2024-03-02T00:11:00.831Z,56.03
2024-03-02T00:13:28.972Z,56.33
2024-03-02T00:15:59.783Z,56.08
2024-03-02T00:18:29.205Z,57.30
2024-03-02T00:20:58.271Z,56.45
2024-03-02T00:23:26.896Z,56.63
2024-03-02T00:25:55.497Z,55.60
2024-03-02T00:28:23.719Z,54.95
2024-03-02T00:31:00.828Z,54.03
2024-03-02T00:33:29.836Z,55.78
2024-03-02T00:35:57.794Z,54.85
2024-03-02T00:38:26.135Z,61.10
2024-03-02T00:40:54.365Z,64.75
2024-03-02T00:43:37.318Z,68.55
2024-03-02T00:46:04.988Z,77.37
2024-03-02T00:48:32.906Z,81.93
2024-03-02T00:51:00.986Z,84.20
2024-03-02T00:53:29.125Z,80.40
2024-03-02T00:55:56.764Z,85.30
2024-03-02T00:58:24.609Z,95.25
2024-03-02T01:00:52.187Z,97.57
2024-03-02T01:03:20.575Z,97.45
2024-03-02T01:05:48.196Z,104.70
2024-03-02T01:08:16.164Z,106.05
2024-03-02T01:10:44.482Z,103.95
2024-03-02T01:13:12.153Z,103.00
2024-03-02T01:15:39.811Z,98.60
2024-03-02T01:18:07.815Z,97.35
2024-03-02T01:20:35.579Z,90.50
2024-03-02T01:23:03.098Z,92.03
2024-03-02T01:25:30.778Z,85.93
2024-03-02T01:27:58.346Z,84.93
2024-03-02T01:30:25.864Z,81.57
2024-03-02T01:32:54.060Z,81.78
2024-03-02T01:35:22.043Z,82.85
2024-03-02T01:37:49.545Z,80.30
2024-03-02T01:40:17.580Z,78.43
2024-03-02T01:42:45.338Z,81.65
2024-03-02T01:45:13.365Z,80.70
2024-03-02T01:47:41.378Z,79.82
2024-03-02T01:50:10.254Z,75.03
2024-03-02T01:52:37.704Z,72.47
2024-03-02T01:55:05.669Z,68.45
2024-03-02T01:57:33.549Z,64.70
2024-03-02T02:00:01.702Z,63.75
2024-03-02T02:02:39.270Z,59.65
2024-03-02T02:05:07.083Z,60.28
2024-03-02T02:07:36.239Z,55.70
2024-03-02T02:10:04.119Z,56.20
2024-03-02T02:12:31.798Z,56.58
2024-03-02T02:14:59.350Z,55.45
2024-03-02T02:17:26.975Z,55.40
2024-03-02T02:19:54.738Z,54.65
2024-03-02T02:22:22.258Z,57.80
2024-03-02T02:24:49.796Z,57.80
2024-03-02T02:27:17.505Z,54.97
2024-03-02T02:29:45.146Z,58.88
2024-03-02T02:32:13.053Z,64.22
2024-03-02T02:34:40.673Z,76.97
2024-03-02T02:37:08.533Z,89.25
2024-03-02T02:39:36.356Z,89.80
2024-03-02T02:42:04.274Z,94.03
2024-03-02T02:44:32.008Z,94.57
2024-03-02T02:46:59.622Z,92.53
2024-03-02T02:49:27.455Z,92.63
2024-03-02T02:51:54.919Z,89.57
2024-03-02T02:54:23.114Z,88.07
2024-03-02T02:56:50.740Z,88.87
2024-03-02T02:59:18.481Z,87.28
2024-03-02T03:01:46.428Z,87.18
2024-03-02T03:04:13.982Z,85.67
2024-03-02T03:06:41.650Z,82.43
2024-03-02T03:09:12.262Z,76.67
2024-03-02T03:11:39.877Z,77.63
2024-03-02T03:14:07.576Z,73.95
2024-03-02T03:16:35.404Z,74.65
2024-03-02T03:19:03.419Z,70.67
2024-03-02T03:21:30.985Z,68.45
2024-03-02T03:23:58.994Z,66.00
2024-03-02T03:26:26.530Z,64.93
2024-03-02T03:28:54.350Z,65.90
2024-03-02T03:31:21.827Z,62.70
2024-03-02T03:33:49.923Z,66.17
2024-03-02T03:36:17.506Z,63.17
2024-03-02T03:38:45.270Z,64.43
2024-03-02T03:41:12.800Z,63.37
2024-03-02T03:43:40.872Z,63.93
2024-03-02T03:46:08.867Z,60.07
2024-03-02T03:48:36.445Z,58.50
2024-03-02T03:51:04.334Z,55.20
2024-03-02T03:53:31.878Z,53.73
2024-03-02T03:55:59.488Z,53.27
2024-03-02T03:58:27.153Z,53.00
2024-03-02T04:00:54.926Z,52.77
2024-03-02T04:03:22.709Z,51.63
2024-03-02T04:05:50.362Z,52.40
2024-03-02T04:08:18.077Z,55.10
2024-03-02T04:10:45.701Z,57.13
2024-03-02T04:13:13.545Z,59.13
2024-03-02T04:15:41.806Z,63.40
2024-03-02T04:18:09.807Z,66.90
2024-03-02T04:20:37.442Z,74.23
2024-03-02T04:23:05.454Z,91.90
2024-03-02T04:25:33.000Z,92.33
2024-03-02T04:28:01.122Z,97.73
2024-03-02T04:30:29.091Z,98.37
2024-03-02T04:32:56.693Z,98.23
2024-03-02T04:35:24.561Z,98.03
2024-03-02T04:37:52.043Z,97.57
2024-03-02T04:40:20.023Z,94.87
2024-03-02T04:42:47.673Z,96.10
2024-03-02T04:45:15.780Z,87.23
2024-03-02T04:47:43.667Z,89.83
2024-03-02T04:50:11.548Z,85.20
2024-03-02T04:52:39.154Z,84.73
2024-03-02T04:55:26.190Z,81.57
2024-03-02T04:57:56.319Z,76.37
2024-03-02T05:00:24.449Z,76.70
2024-03-02T05:02:52.674Z,74.50
2024-03-02T05:05:20.233Z,71.87
2024-03-02T05:07:48.170Z,70.00
2024-03-02T05:10:15.902Z,69.73
2024-03-02T05:12:43.988Z,62.87
2024-03-02T05:15:15.977Z,60.93
2024-03-02T05:17:47.236Z,58.53
2024-03-02T05:20:15.088Z,59.13
2024-03-02T05:22:42.812Z,57.63
2024-03-02T05:25:13.584Z,55.27
2024-03-02T05:27:41.653Z,50.40
2024-03-02T05:30:09.976Z,49.47
2024-03-02T05:32:37.678Z,48.03
2024-03-02T05:35:06.452Z,47.60
2024-03-02T05:37:34.144Z,48.53
2024-03-02T05:40:01.923Z,49.40
2024-03-02T05:42:29.713Z,47.93
2024-03-02T05:44:57.639Z,47.20
2024-03-02T05:47:25.406Z,47.70
2024-03-02T05:49:52.973Z,46.60
2024-03-02T05:52:21.993Z,45.83
2024-03-02T05:54:50.984Z,47.53
2024-03-02T05:57:28.888Z,45.60
2024-03-02T05:59:56.676Z,45.97
2024-03-02T06:02:24.725Z,45.27
2024-03-02T06:04:52.176Z,45.13
2024-03-02T06:07:20.254Z,46.97
2024-03-02T06:09:49.822Z,46.17
2024-03-02T06:12:17.815Z,44.97
2024-03-02T06:14:46.237Z,46.77
2024-03-02T06:17:16.771Z,47.10
2024-03-02T06:19:47.966Z,45.33
2024-03-02T06:22:16.163Z,46.10
2024-03-02T06:24:43.713Z,45.53
2024-03-02T06:27:11.326Z,45.00
2024-03-02T06:29:39.098Z,44.90
2024-03-02T06:32:06.910Z,44.63
2024-03-02T06:34:34.488Z,44.97
2024-03-02T06:37:02.076Z,48.23
2024-03-02T06:39:30.006Z,47.93
2024-03-02T06:41:57.854Z,47.37
2024-03-02T06:44:25.449Z,48.37
2024-03-02T06:46:53.173Z,48.50
2024-03-02T06:49:21.046Z,50.30
2024-03-02T06:51:48.682Z,48.87
2024-03-02T06:54:16.316Z,50.23
2024-03-02T06:56:43.769Z,50.73
2024-03-02T06:59:11.414Z,49.50
2024-03-02T07:01:39.115Z,49.63
2024-03-02T07:04:08.059Z,49.73
2024-03-02T07:06:35.907Z,49.78
2024-03-02T07:09:03.661Z,51.00
2024-03-02T07:11:31.340Z,49.90
2024-03-02T07:13:59.148Z,49.07
2024-03-02T07:16:31.089Z,48.53
2024-03-02T07:19:00.204Z,46.53
2024-03-02T07:21:27.797Z,46.63
2024-03-02T07:23:55.345Z,45.00
2024-03-02T07:28:53.912Z,41.17
2024-03-02T07:31:21.918Z,36.17
2024-03-02T07:33:49.496Z,36.55
2024-03-02T07:36:17.532Z,34.47
2024-03-02T07:38:46.173Z,35.58
2024-03-02T07:41:14.497Z,34.08
2024-03-02T07:43:42.045Z,32.80
2024-03-02T07:46:09.682Z,35.25
2024-03-02T07:48:37.312Z,33.58
2024-03-02T07:51:05.309Z,34.30
2024-03-02T07:53:32.963Z,33.72
2024-03-02T07:56:03.744Z,35.67
2024-03-02T07:58:32.415Z,34.40
2024-03-02T08:01:02.772Z,34.88
2024-03-02T08:03:30.766Z,35.83
2024-03-02T08:05:58.448Z,34.90
2024-03-02T08:08:25.976Z,36.05
2024-03-02T08:10:53.655Z,37.70
2024-03-02T08:13:21.336Z,38.72
2024-03-02T08:15:48.949Z,36.85
2024-03-02T08:18:16.670Z,37.72
2024-03-02T08:20:44.239Z,37.63
2024-03-02T08:23:11.835Z,39.53
2024-03-02T08:25:39.660Z,38.60
2024-03-02T08:28:07.548Z,36.33
2024-03-02T08:30:35.151Z,37.63
2024-03-02T08:33:02.776Z,38.47
2024-03-02T08:35:30.333Z,39.00
2024-03-02T08:37:57.838Z,37.28
2024-03-02T08:40:25.588Z,37.97
2024-03-02T08:42:53.220Z,38.38
2024-03-02T08:45:21.739Z,39.30
2024-03-02T08:47:50.457Z,39.50
2024-03-02T08:50:18.171Z,39.50
2024-03-02T08:52:45.747Z,39.40
2024-03-02T08:55:13.316Z,39.63
2024-03-02T08:57:40.963Z,39.22
2024-03-02T09:00:08.951Z,38.97
2024-03-02T09:02:36.694Z,40.85
2024-03-02T09:05:04.332Z,38.90
2024-03-02T09:07:32.781Z,38.10
2024-03-02T09:10:00.675Z,35.10
2024-03-02T09:12:29.099Z,36.67
2024-03-02T09:14:56.741Z,35.20
2024-03-02T09:17:24.393Z,37.80
2024-03-02T09:19:54.062Z,37.63
2024-03-02T09:22:22.096Z,37.17
2024-03-02T09:24:50.188Z,34.78
2024-03-02T09:27:17.719Z,35.75
2024-03-02T09:29:45.557Z,36.75
2024-03-02T09:32:15.106Z,35.38
2024-03-02T09:34:42.931Z,35.83
2024-03-02T09:37:10.534Z,34.78
2024-03-02T09:39:38.609Z,36.58
2024-03-02T09:42:06.912Z,36.70
2024-03-02T09:44:35.096Z,35.20
2024-03-02T09:47:02.597Z,35.38
2024-03-02T09:49:30.390Z,34.60
2024-03-02T09:51:58.391Z,35.47
2024-03-02T09:54:26.024Z,35.40
2024-03-02T09:56:54.096Z,36.05
2024-03-02T09:59:22.089Z,36.67
2024-03-02T10:01:59.710Z,35.00
2024-03-02T10:04:28.072Z,36.42
2024-03-02T10:07:10.800Z,36.45
2024-03-02T10:09:38.751Z,35.35
2024-03-02T10:12:07.424Z,36.75
2024-03-02T10:14:35.234Z,35.88
2024-03-02T10:17:06.552Z,35.83
2024-03-02T10:19:36.010Z,38.25
2024-03-02T10:22:04.937Z,38.63
2024-03-02T10:24:40.846Z,37.28
2024-03-02T10:27:10.291Z,37.60
2024-03-02T10:29:42.206Z,39.85
2024-03-02T10:32:13.358Z,40.65
2024-03-02T10:34:44.802Z,39.72
2024-03-02T10:37:13.526Z,42.13
2024-03-02T10:39:42.303Z,43.78
2024-03-02T10:42:10.727Z,43.25
2024-03-02T10:44:38.514Z,43.67
2024-03-02T10:47:06.984Z,43.88
2024-03-02T10:49:35.170Z,43.60
2024-03-02T10:52:03.621Z,44.47
2024-03-02T10:54:37.871Z,44.28
2024-03-02T10:57:07.102Z,44.33
2024-03-02T10:59:35.639Z,45.67
2024-03-02T11:02:05.960Z,44.05
2024-03-02T11:04:36.405Z,44.75
2024-03-02T11:07:06.231Z,47.33
2024-03-02T11:09:35.909Z,51.22
2024-03-02T11:12:21.842Z,50.35
2024-03-02T11:14:49.448Z,50.47
2024-03-02T11:17:17.569Z,48.03
2024-03-02T11:19:45.418Z,46.38
2024-03-02T11:22:13.633Z,46.13
2024-03-02T11:24:41.313Z,42.97
2024-03-02T11:27:12.628Z,44.05
2024-03-02T11:29:40.503Z,44.33
2024-03-02T11:32:18.921Z,44.90
2024-03-02T11:34:50.885Z,44.88
2024-03-02T11:37:21.512Z,43.17
2024-03-02T11:39:51.585Z,40.05
2024-03-02T11:42:19.647Z,42.42
2024-03-02T11:44:47.946Z,42.10
2024-03-02T11:47:16.868Z,42.95
2024-03-02T11:49:46.417Z,38.83
2024-03-02T11:52:21.058Z,37.00
2024-03-02T11:54:50.155Z,39.10
2024-03-02T11:57:18.727Z,38.22
2024-03-02T11:59:46.282Z,38.58
2024-03-02T12:02:18.397Z,38.30
2024-03-02T12:04:46.713Z,38.95
2024-03-02T12:07:14.709Z,38.15
2024-03-02T12:09:42.162Z,37.55
2024-03-02T12:12:11.141Z,37.22
2024-03-02T12:14:39.391Z,36.05
2024-03-02T12:17:07.869Z,33.85
2024-03-02T12:19:35.917Z,31.77
2024-03-02T12:22:04.005Z,33.60
2024-03-02T12:24:32.217Z,32.50
2024-03-02T12:27:00.311Z,33.35
2024-03-02T12:29:28.020Z,32.33
2024-03-02T12:31:55.831Z,31.83
2024-03-02T12:34:24.554Z,30.38
2024-03-02T12:36:54.404Z,30.30
2024-03-02T12:39:24.295Z,31.75
2024-03-02T12:41:52.619Z,31.17
2024-03-02T12:44:20.179Z,31.05
2024-03-02T12:46:48.519Z,32.42
2024-03-02T12:49:17.362Z,31.92
2024-03-02T12:51:46.348Z,31.30
2024-03-02T12:54:14.076Z,30.48
2024-03-02T12:56:46.702Z,31.10
2024-03-02T12:59:22.714Z,30.63
2024-03-02T13:01:59.059Z,30.27
2024-03-02T13:04:27.301Z,28.85
2024-03-02T13:06:55.206Z,29.50
2024-03-02T13:09:22.885Z,29.42
2024-03-02T13:11:50.781Z,29.23
2024-03-02T13:14:18.440Z,30.27
2024-03-02T13:16:48.608Z,30.15
2024-03-02T13:19:16.577Z,30.85
2024-03-02T13:21:44.292Z,29.48
2024-03-02T13:24:12.001Z,30.00
2024-03-02T13:26:40.356Z,30.10
2024-03-02T13:29:09.274Z,29.58
2024-03-02T13:31:36.776Z,28.70
2024-03-02T13:34:04.505Z,28.40
2024-03-02T13:36:32.063Z,28.60
2024-03-02T13:38:59.749Z,27.60
2024-03-02T13:41:27.335Z,27.80
2024-03-02T13:43:55.149Z,27.40
2024-03-02T13:46:23.439Z,28.05
2024-03-02T13:48:52.728Z,27.85
2024-03-02T13:51:20.449Z,27.35
2024-03-02T13:53:48.027Z,27.70
2024-03-02T13:56:15.917Z,27.27
2024-03-02T13:58:44.937Z,28.10
2024-03-02T14:01:12.581Z,26.98
2024-03-02T14:03:40.127Z,27.48
2024-03-02T14:06:07.771Z,28.35
2024-03-02T14:08:37.235Z,27.98
2024-03-02T14:11:04.925Z,27.88
2024-03-02T14:13:32.720Z,28.58
2024-03-02T14:16:00.282Z,27.73
2024-03-02T14:18:28.112Z,25.90
2024-03-02T14:20:58.244Z,26.00
2024-03-02T14:23:27.212Z,26.77
2024-03-02T14:25:54.862Z,28.27
2024-03-02T14:30:53.101Z,29.90
2024-03-02T14:33:20.820Z,30.98
2024-03-02T14:35:48.671Z,31.80
2024-03-02T14:38:16.728Z,31.65
2024-03-02T14:40:44.265Z,31.88
2024-03-02T14:43:12.376Z,31.23
2024-03-02T14:45:40.398Z,31.38
2024-03-02T14:48:08.085Z,31.10
2024-03-02T14:50:36.028Z,32.22
2024-03-02T14:53:04.056Z,33.70
2024-03-02T14:55:31.788Z,35.25
2024-03-02T14:57:59.660Z,33.58
2024-03-02T15:00:27.778Z,35.28
2024-03-02T15:02:55.408Z,35.45
2024-03-02T15:05:23.192Z,35.38
2024-03-02T15:07:50.662Z,36.88
2024-03-02T15:10:18.533Z,37.50
2024-03-02T15:12:45.965Z,39.83
2024-03-02T15:15:13.509Z,39.92
2024-03-02T15:17:41.380Z,41.22
2024-03-02T15:20:09.567Z,40.17
2024-03-02T15:22:37.311Z,39.88
2024-03-02T15:25:05.503Z,38.70
2024-03-02T15:27:33.333Z,36.83
2024-03-02T15:30:01.958Z,36.70
2024-03-02T15:32:29.721Z,37.25
2024-03-02T15:34:57.356Z,36.45
2024-03-02T15:37:25.197Z,35.35
2024-03-02T15:39:53.010Z,35.13
2024-03-02T15:42:24.639Z,33.35
2024-03-02T15:44:52.309Z,34.55
2024-03-02T15:47:19.935Z,33.53
2024-03-02T15:49:47.422Z,34.63
2024-03-02T15:52:18.087Z,34.63
2024-03-02T15:54:45.979Z,34.17
2024-03-02T15:57:13.861Z,33.08
2024-03-02T15:59:41.385Z,33.47
2024-03-02T16:02:08.967Z,34.05
2024-03-02T16:04:36.615Z,35.40
2024-03-02T16:07:04.571Z,35.90
2024-03-02T16:09:32.139Z,34.88
2024-03-02T16:11:59.755Z,34.85
2024-03-02T16:14:27.471Z,36.63
2024-03-02T16:16:55.117Z,36.92
2024-03-02T16:19:29.808Z,37.08
2024-03-02T16:22:01.187Z,37.15
2024-03-02T16:24:28.859Z,39.83
2024-03-02T16:26:56.715Z,39.78
2024-03-02T16:29:24.224Z,38.58
2024-03-02T16:31:52.411Z,37.75
2024-03-02T16:34:20.293Z,39.08
2024-03-02T16:36:47.898Z,39.55
2024-03-02T16:39:15.689Z,39.28
2024-03-02T16:41:48.095Z,39.65
2024-03-02T16:44:15.860Z,39.33
2024-03-02T16:46:43.446Z,40.15
2024-03-02T16:49:10.979Z,41.25
2024-03-02T16:51:42.782Z,41.20
2024-03-02T16:54:10.629Z,40.22
2024-03-02T16:56:44.469Z,41.63
2024-03-02T16:59:12.429Z,41.72
2024-03-02T17:01:40.112Z,39.30
2024-03-02T17:04:08.359Z,37.20
2024-03-02T17:06:36.355Z,39.05
2024-03-02T17:09:04.178Z,37.85
2024-03-02T17:11:32.407Z,38.67
2024-03-02T17:14:00.788Z,38.67
2024-03-02T17:16:28.268Z,39.33
2024-03-02T17:18:56.785Z,39.55
2024-03-02T17:21:24.471Z,40.33
2024-03-02T17:23:52.038Z,40.92
2024-03-02T17:26:19.667Z,41.53
2024-03-02T17:28:47.289Z,40.97
2024-03-02T17:31:15.373Z,41.75
2024-03-02T17:33:42.911Z,40.17
2024-03-02T17:36:10.644Z,40.47
2024-03-02T17:38:38.185Z,41.42
2024-03-02T17:41:06.457Z,40.70
2024-03-02T17:43:34.513Z,40.00
2024-03-02T17:46:02.670Z,40.65
2024-03-02T17:48:31.121Z,41.67
2024-03-02T17:51:00.214Z,40.30
2024-03-02T17:53:27.772Z,42.88
2024-03-02T17:55:55.626Z,42.45
2024-03-02T17:58:23.722Z,42.15
2024-03-02T18:00:51.619Z,43.78
2024-03-02T18:03:19.733Z,44.20
2024-03-02T18:05:47.402Z,43.72
2024-03-02T18:08:15.637Z,43.13
2024-03-02T18:10:43.225Z,43.67
2024-03-02T18:13:11.223Z,44.30
2024-03-02T18:15:39.617Z,43.15
2024-03-02T18:18:08.445Z,44.65
2024-03-02T18:20:36.065Z,43.63
2024-03-02T18:23:04.071Z,44.88
2024-03-02T18:25:32.192Z,46.00
2024-03-02T18:27:59.738Z,46.03
2024-03-02T18:30:27.656Z,46.70
2024-03-02T18:32:55.504Z,46.53
2024-03-02T18:35:23.148Z,48.28
2024-03-02T18:37:51.199Z,48.15
2024-03-02T18:40:18.956Z,48.25
2024-03-02T18:42:46.713Z,52.15
2024-03-02T18:45:14.813Z,51.53
2024-03-02T18:47:42.419Z,52.53
2024-03-02T18:50:10.376Z,52.72
2024-03-02T18:52:38.515Z,50.88
2024-03-02T18:55:08.375Z,52.75
2024-03-02T18:57:36.419Z,51.20
2024-03-02T19:03:37.397Z,51.85
2024-03-02T19:06:05.200Z,51.90
2024-03-02T19:08:33.206Z,53.97
2024-03-02T19:11:01.636Z,53.97
2024-03-02T19:13:29.184Z,53.00
2024-03-02T19:15:57.701Z,54.85
2024-03-02T19:18:25.361Z,54.33
2024-03-02T19:20:53.222Z,55.17
2024-03-02T19:23:25.799Z,54.65
2024-03-02T19:25:59.687Z,54.50
2024-03-02T19:28:27.475Z,54.33
2024-03-02T19:30:55.599Z,54.53
2024-03-02T19:33:23.165Z,53.50
2024-03-02T19:35:51.225Z,54.65
2024-03-02T19:38:19.628Z,53.35
2024-03-02T19:40:47.577Z,55.10
2024-03-02T19:43:18.965Z,54.92
2024-03-02T19:45:46.873Z,55.17
2024-03-02T19:48:17.217Z,53.72
2024-03-02T19:50:45.321Z,53.40
2024-03-02T19:53:12.928Z,55.38
2024-03-02T19:55:41.952Z,56.30
2024-03-02T19:58:10.344Z,53.88
2024-03-02T20:00:38.322Z,55.78
2024-03-02T20:03:05.993Z,54.30
2024-03-02T20:05:33.623Z,54.67
2024-03-02T20:08:01.799Z,55.30
2024-03-02T20:10:29.357Z,53.58
2024-03-02T20:12:56.916Z,55.15
2024-03-02T20:15:24.638Z,53.17
2024-03-02T20:17:52.261Z,53.53
2024-03-02T20:20:20.118Z,53.70
2024-03-02T20:22:47.844Z,50.75
2024-03-02T20:25:16.973Z,51.40
2024-03-02T20:27:46.477Z,50.60
2024-03-02T20:30:14.432Z,48.40
2024-03-02T20:32:42.305Z,49.42
2024-03-02T20:35:11.337Z,50.20
2024-03-02T20:37:38.833Z,51.08
2024-03-02T20:40:06.991Z,50.95
2024-03-02T20:42:34.626Z,51.92
2024-03-02T20:45:02.470Z,51.28
2024-03-02T20:47:30.807Z,51.30
2024-03-02T20:49:58.224Z,50.40
2024-03-02T20:52:26.432Z,52.08
2024-03-02T20:54:54.448Z,49.35
2024-03-02T20:57:21.984Z,51.55
2024-03-02T20:59:49.684Z,52.65
2024-03-02T21:02:17.899Z,53.72
2024-03-02T21:04:47.258Z,52.38
2024-03-02T21:07:14.964Z,52.15
2024-03-02T21:09:42.869Z,53.63
2024-03-02T21:12:11.090Z,52.75
2024-03-02T21:14:41.071Z,52.85
2024-03-02T21:17:09.034Z,52.35
2024-03-02T21:19:37.116Z,52.80
2024-03-02T21:22:07.213Z,53.55
2024-03-02T21:24:36.798Z,56.13
2024-03-02T21:27:04.928Z,53.72
2024-03-02T21:29:32.787Z,53.78
2024-03-02T21:32:00.507Z,53.38
2024-03-02T21:34:28.573Z,53.45
2024-03-02T21:36:56.163Z,56.33
2024-03-02T21:39:31.756Z,53.38
2024-03-02T21:42:03.636Z,55.55
2024-03-02T21:44:31.480Z,55.22
2024-03-02T21:46:59.000Z,54.58
2024-03-02T21:49:26.874Z,54.80
2024-03-02T21:51:55.301Z,57.17
2024-03-02T21:54:22.841Z,56.03
2024-03-02T21:56:52.542Z,55.47
2024-03-02T21:59:20.146Z,56.03
2024-03-02T22:01:48.061Z,54.50
2024-03-02T22:04:15.688Z,53.35
2024-03-02T22:06:43.531Z,56.78
2024-03-02T22:09:16.919Z,54.65
2024-03-02T22:11:44.733Z,55.95
2024-03-02T22:14:12.134Z,56.10
2024-03-02T22:16:39.610Z,58.60
2024-03-02T22:19:07.106Z,58.70
2024-03-02T22:21:34.816Z,58.45
2024-03-02T22:24:03.010Z,58.10
2024-03-02T22:26:30.492Z,58.42
2024-03-02T22:28:57.891Z,57.03
2024-03-02T22:31:25.819Z,55.92
2024-03-02T22:33:53.558Z,56.83
2024-03-02T22:36:21.292Z,56.75
2024-03-02T22:38:49.259Z,56.05
2024-03-02T22:41:16.710Z,56.72
2024-03-02T22:43:45.326Z,56.72
2024-03-02T22:46:16.140Z,55.22
2024-03-02T22:48:44.267Z,56.97
2024-03-02T22:51:13.238Z,55.33
2024-03-02T22:53:41.185Z,57.72
2024-03-02T22:56:08.893Z,56.00
2024-03-02T22:58:37.047Z,57.97
2024-03-02T23:01:10.080Z,58.20
2024-03-02T23:03:41.563Z,58.05
2024-03-02T23:06:09.896Z,59.35
2024-03-02T23:08:40.254Z,60.00
2024-03-02T23:11:08.534Z,62.47
2024-03-02T23:13:37.173Z,62.10
2024-03-02T23:16:05.621Z,64.53
2024-03-02T23:18:33.103Z,65.53
2024-03-02T23:21:01.065Z,67.80
2024-03-02T23:23:28.696Z,63.65
2024-03-02T23:25:56.654Z,67.10
2024-03-02T23:28:24.260Z,69.55
2024-03-02T23:30:52.005Z,68.32
2024-03-02T23:33:20.080Z,75.47
2024-03-02T23:35:47.696Z,77.32
2024-03-02T23:38:15.474Z,79.20
2024-03-02T23:40:48.866Z,80.88
2024-03-02T23:43:16.646Z,80.80
2024-03-02T23:45:44.201Z,83.15
2024-03-02T23:48:11.851Z,78.97
2024-03-02T23:50:39.485Z,74.03
2024-03-02T23:53:06.930Z,64.65
2024-03-02T23:55:46.458Z,67.00
2024-03-02T23:58:19.303Z,62.80
